sensor_id;sensor_type;location;lat;lon;timestamp;temperature;humidity
66522;SHT31;53349;53.538;8.584;2023-02-28T00:00:18;5.74;70.98
66522;SHT31;53349;53.538;8.584;2023-02-28T00:02:45;5.72;71.55
66522;SHT31;53349;53.538;8.584;2023-02-28T00:05:13;5.69;71.67
66522;SHT31;53349;53.538;8.584;2023-02-28T00:07:39;5.70;72.10
66522;SHT31;53349;53.538;8.584;2023-02-28T00:10:07;5.69;72.43
66522;SHT31;53349;53.538;8.584;2023-02-28T00:12:34;5.72;72.30
66522;SHT31;53349;53.538;8.584;2023-02-28T00:15:02;5.79;72.12
66522;SHT31;53349;53.538;8.584;2023-02-28T00:17:28;5.83;71.96
66522;SHT31;53349;53.538;8.584;2023-02-28T00:19:53;5.74;72.14
66522;SHT31;53349;53.538;8.584;2023-02-28T00:22:20;5.79;72.11
66522;SHT31;53349;53.538;8.584;2023-02-28T00:24:49;5.77;72.12
66522;SHT31;53349;53.538;8.584;2023-02-28T00:27:17;5.80;72.06
66522;SHT31;53349;53.538;8.584;2023-02-28T00:29:48;5.80;72.01
66522;SHT31;53349;53.538;8.584;2023-02-28T00:32:13;5.83;71.86
66522;SHT31;53349;53.538;8.584;2023-02-28T00:34:39;5.74;71.72
66522;SHT31;53349;53.538;8.584;2023-02-28T00:37:09;5.72;71.93
66522;SHT31;53349;53.538;8.584;2023-02-28T00:39:41;5.69;72.00
66522;SHT31;53349;53.538;8.584;2023-02-28T00:42:09;5.69;71.98
66522;SHT31;53349;53.538;8.584;2023-02-28T00:44:35;5.74;72.02
66522;SHT31;53349;53.538;8.584;2023-02-28T00:47:00;5.67;71.96
66522;SHT31;53349;53.538;8.584;2023-02-28T00:49:30;5.69;72.09
66522;SHT31;53349;53.538;8.584;2023-02-28T00:51:55;5.65;72.17
66522;SHT31;53349;53.538;8.584;2023-02-28T00:54:24;5.63;72.25
66522;SHT31;53349;53.538;8.584;2023-02-28T00:56:54;5.66;72.02
66522;SHT31;53349;53.538;8.584;2023-02-28T00:59:20;5.69;71.85
66522;SHT31;53349;53.538;8.584;2023-02-28T01:01:46;5.69;71.71
66522;SHT31;53349;53.538;8.584;2023-02-28T01:04:12;5.70;71.64
66522;SHT31;53349;53.538;8.584;2023-02-28T01:06:38;5.69;71.98
66522;SHT31;53349;53.538;8.584;2023-02-28T01:09:05;5.67;72.14
66522;SHT31;53349;53.538;8.584;2023-02-28T01:11:31;5.62;72.38
66522;SHT31;53349;53.538;8.584;2023-02-28T01:13:57;5.60;72.50
66522;SHT31;53349;53.538;8.584;2023-02-28T01:16:26;5.60;72.47
66522;SHT31;53349;53.538;8.584;2023-02-28T01:18:52;5.55;72.49
66522;SHT31;53349;53.538;8.584;2023-02-28T01:21:19;5.60;72.56
66522;SHT31;53349;53.538;8.584;2023-02-28T01:23:48;5.66;72.41
66522;SHT31;53349;53.538;8.584;2023-02-28T01:26:17;5.63;72.63
66522;SHT31;53349;53.538;8.584;2023-02-28T01:28:43;5.58;72.84
66522;SHT31;53349;53.538;8.584;2023-02-28T01:31:08;5.58;72.88
66522;SHT31;53349;53.538;8.584;2023-02-28T01:33:34;5.63;72.67
66522;SHT31;53349;53.538;8.584;2023-02-28T01:36:10;5.67;72.56
66522;SHT31;53349;53.538;8.584;2023-02-28T01:38:38;5.72;72.48
66522;SHT31;53349;53.538;8.584;2023-02-28T01:41:06;5.74;72.45
66522;SHT31;53349;53.538;8.584;2023-02-28T01:43:59;5.74;72.43
66522;SHT31;53349;53.538;8.584;2023-02-28T01:46:24;5.60;72.79
66522;SHT31;53349;53.538;8.584;2023-02-28T01:49:13;5.66;72.88
66522;SHT31;53349;53.538;8.584;2023-02-28T01:51:43;5.67;72.77
66522;SHT31;53349;53.538;8.584;2023-02-28T01:54:14;5.70;72.80
66522;SHT31;53349;53.538;8.584;2023-02-28T01:56:47;5.70;72.79
66522;SHT31;53349;53.538;8.584;2023-02-28T01:59:21;5.66;73.09
66522;SHT31;53349;53.538;8.584;2023-02-28T02:01:46;5.63;73.33
66522;SHT31;53349;53.538;8.584;2023-02-28T02:04:13;5.62;73.39
66522;SHT31;53349;53.538;8.584;2023-02-28T02:06:44;5.59;73.37
66522;SHT31;53349;53.538;8.584;2023-02-28T02:09:12;5.56;73.34
66522;SHT31;53349;53.538;8.584;2023-02-28T02:11:42;5.60;73.18
66522;SHT31;53349;53.538;8.584;2023-02-28T02:23:20;5.58;72.81
66522;SHT31;53349;53.538;8.584;2023-02-28T02:32:31;5.56;72.47
66522;SHT31;53349;53.538;8.584;2023-02-28T02:40:42;5.51;72.86
66522;SHT31;53349;53.538;8.584;2023-02-28T02:43:16;5.49;72.88
66522;SHT31;53349;53.538;8.584;2023-02-28T02:45:49;5.48;72.98
66522;SHT31;53349;53.538;8.584;2023-02-28T02:48:18;5.51;72.85
66522;SHT31;53349;53.538;8.584;2023-02-28T02:50:48;5.49;72.89
66522;SHT31;53349;53.538;8.584;2023-02-28T02:53:18;5.48;72.97
66522;SHT31;53349;53.538;8.584;2023-02-28T02:55:47;5.49;72.76
66522;SHT31;53349;53.538;8.584;2023-02-28T02:58:16;5.51;72.51
66522;SHT31;53349;53.538;8.584;2023-02-28T03:00:50;5.51;72.40
66522;SHT31;53349;53.538;8.584;2023-02-28T03:03:19;5.51;72.45
66522;SHT31;53349;53.538;8.584;2023-02-28T03:05:48;5.42;72.58
66522;SHT31;53349;53.538;8.584;2023-02-28T03:08:14;5.42;72.68
66522;SHT31;53349;53.538;8.584;2023-02-28T03:10:42;5.42;72.74
66522;SHT31;53349;53.538;8.584;2023-02-28T03:21:28;5.41;72.65
66522;SHT31;53349;53.538;8.584;2023-02-28T03:24:19;5.41;72.73
66522;SHT31;53349;53.538;8.584;2023-02-28T03:27:05;5.38;72.88
66522;SHT31;53349;53.538;8.584;2023-02-28T03:29:46;5.38;72.89
66522;SHT31;53349;53.538;8.584;2023-02-28T03:32:28;5.36;73.12
66522;SHT31;53349;53.538;8.584;2023-02-28T03:35:08;5.34;73.29
66522;SHT31;53349;53.538;8.584;2023-02-28T03:37:39;5.29;73.30
66522;SHT31;53349;53.538;8.584;2023-02-28T03:40:08;5.18;73.56
66522;SHT31;53349;53.538;8.584;2023-02-28T03:42:40;5.12;73.75
66522;SHT31;53349;53.538;8.584;2023-02-28T03:45:16;5.11;73.89
66522;SHT31;53349;53.538;8.584;2023-02-28T03:48:07;5.11;73.73
66522;SHT31;53349;53.538;8.584;2023-02-28T03:50:39;5.10;73.65
66522;SHT31;53349;53.538;8.584;2023-02-28T03:53:38;5.12;73.68
66522;SHT31;53349;53.538;8.584;2023-02-28T03:56:13;5.11;73.42
66522;SHT31;53349;53.538;8.584;2023-02-28T04:01:42;5.00;72.90
66522;SHT31;53349;53.538;8.584;2023-02-28T04:04:15;5.04;72.84
66522;SHT31;53349;53.538;8.584;2023-02-28T04:06:44;5.02;72.48
66522;SHT31;53349;53.538;8.584;2023-02-28T04:09:13;5.02;72.15
66522;SHT31;53349;53.538;8.584;2023-02-28T04:11:39;5.01;71.54
66522;SHT31;53349;53.538;8.584;2023-02-28T04:14:07;5.02;71.27
66522;SHT31;53349;53.538;8.584;2023-02-28T04:16:34;5.01;70.83
66522;SHT31;53349;53.538;8.584;2023-02-28T04:19:00;5.00;70.42
66522;SHT31;53349;53.538;8.584;2023-02-28T04:21:25;4.94;70.37
66522;SHT31;53349;53.538;8.584;2023-02-28T04:23:51;5.01;70.40
66522;SHT31;53349;53.538;8.584;2023-02-28T04:26:16;4.97;69.88
66522;SHT31;53349;53.538;8.584;2023-02-28T04:28:41;4.85;69.50
66522;SHT31;53349;53.538;8.584;2023-02-28T04:31:09;4.85;69.49
66522;SHT31;53349;53.538;8.584;2023-02-28T04:33:35;4.88;69.45
66522;SHT31;53349;53.538;8.584;2023-02-28T04:36:06;4.84;68.78
66522;SHT31;53349;53.538;8.584;2023-02-28T04:38:37;4.88;68.38
66522;SHT31;53349;53.538;8.584;2023-02-28T04:41:03;4.87;68.37
66522;SHT31;53349;53.538;8.584;2023-02-28T04:43:29;4.94;68.43
66522;SHT31;53349;53.538;8.584;2023-02-28T04:45:56;4.88;68.48
66522;SHT31;53349;53.538;8.584;2023-02-28T04:48:27;4.85;68.22
66522;SHT31;53349;53.538;8.584;2023-02-28T04:50:52;4.81;67.84
66522;SHT31;53349;53.538;8.584;2023-02-28T04:53:18;4.83;67.71
66522;SHT31;53349;53.538;8.584;2023-02-28T04:55:44;4.84;67.84
66522;SHT31;53349;53.538;8.584;2023-02-28T04:58:13;4.83;67.44
66522;SHT31;53349;53.538;8.584;2023-02-28T05:00:38;4.83;67.30
66522;SHT31;53349;53.538;8.584;2023-02-28T05:03:04;4.79;67.24
66522;SHT31;53349;53.538;8.584;2023-02-28T05:05:30;4.76;67.27
66522;SHT31;53349;53.538;8.584;2023-02-28T05:07:55;4.71;67.44
66522;SHT31;53349;53.538;8.584;2023-02-28T05:10:22;4.76;67.56
66522;SHT31;53349;53.538;8.584;2023-02-28T05:12:48;4.70;67.22
66522;SHT31;53349;53.538;8.584;2023-02-28T05:15:14;4.74;67.29
66522;SHT31;53349;53.538;8.584;2023-02-28T05:17:42;4.77;67.15
66522;SHT31;53349;53.538;8.584;2023-02-28T05:20:09;4.80;67.25
66522;SHT31;53349;53.538;8.584;2023-02-28T05:22:37;4.83;67.18
66522;SHT31;53349;53.538;8.584;2023-02-28T05:25:05;4.87;67.25
66522;SHT31;53349;53.538;8.584;2023-02-28T05:27:31;4.87;67.24
66522;SHT31;53349;53.538;8.584;2023-02-28T05:29:57;4.85;67.44
66522;SHT31;53349;53.538;8.584;2023-02-28T05:32:23;4.80;67.38
66522;SHT31;53349;53.538;8.584;2023-02-28T05:34:48;4.73;67.34
66522;SHT31;53349;53.538;8.584;2023-02-28T05:37:16;4.66;67.26
66522;SHT31;53349;53.538;8.584;2023-02-28T05:39:42;4.64;67.32
66522;SHT31;53349;53.538;8.584;2023-02-28T05:42:10;4.64;67.51
66522;SHT31;53349;53.538;8.584;2023-02-28T05:44:35;4.61;66.58
66522;SHT31;53349;53.538;8.584;2023-02-28T05:47:01;4.60;66.86
66522;SHT31;53349;53.538;8.584;2023-02-28T05:49:27;4.56;67.26
66522;SHT31;53349;53.538;8.584;2023-02-28T05:51:53;4.56;67.38
66522;SHT31;53349;53.538;8.584;2023-02-28T05:54:19;4.57;67.03
66522;SHT31;53349;53.538;8.584;2023-02-28T05:56:46;4.54;66.87
66522;SHT31;53349;53.538;8.584;2023-02-28T05:59:12;4.52;66.97
66522;SHT31;53349;53.538;8.584;2023-02-28T06:01:45;4.49;66.94
66522;SHT31;53349;53.538;8.584;2023-02-28T06:04:10;4.45;67.06
66522;SHT31;53349;53.538;8.584;2023-02-28T06:06:35;4.39;67.30
66522;SHT31;53349;53.538;8.584;2023-02-28T06:09:02;4.38;67.46
66522;SHT31;53349;53.538;8.584;2023-02-28T06:11:27;4.35;67.66
66522;SHT31;53349;53.538;8.584;2023-02-28T06:13:54;4.35;67.73
66522;SHT31;53349;53.538;8.584;2023-02-28T06:16:21;4.32;67.67
66522;SHT31;53349;53.538;8.584;2023-02-28T06:18:46;4.22;67.73
66522;SHT31;53349;53.538;8.584;2023-02-28T06:21:12;4.20;67.75
66522;SHT31;53349;53.538;8.584;2023-02-28T06:23:38;4.16;67.60
66522;SHT31;53349;53.538;8.584;2023-02-28T06:26:03;4.11;67.56
66522;SHT31;53349;53.538;8.584;2023-02-28T06:28:29;4.11;67.50
66522;SHT31;53349;53.538;8.584;2023-02-28T06:30:54;4.19;67.55
66522;SHT31;53349;53.538;8.584;2023-02-28T06:33:20;4.23;67.56
66522;SHT31;53349;53.538;8.584;2023-02-28T06:35:52;4.20;67.43
66522;SHT31;53349;53.538;8.584;2023-02-28T06:38:18;4.20;67.42
66522;SHT31;53349;53.538;8.584;2023-02-28T06:40:44;4.26;67.55
66522;SHT31;53349;53.538;8.584;2023-02-28T06:43:12;4.29;67.44
66522;SHT31;53349;53.538;8.584;2023-02-28T06:45:41;4.30;67.19
66522;SHT31;53349;53.538;8.584;2023-02-28T06:48:06;4.29;67.13
66522;SHT31;53349;53.538;8.584;2023-02-28T06:50:32;4.25;67.33
66522;SHT31;53349;53.538;8.584;2023-02-28T06:52:57;4.29;67.30
66522;SHT31;53349;53.538;8.584;2023-02-28T06:55:24;4.26;67.37
66522;SHT31;53349;53.538;8.584;2023-02-28T06:57:49;4.28;67.30
66522;SHT31;53349;53.538;8.584;2023-02-28T07:00:15;4.23;67.25
66522;SHT31;53349;53.538;8.584;2023-02-28T07:02:41;4.19;67.35
66522;SHT31;53349;53.538;8.584;2023-02-28T07:05:09;4.15;67.29
66522;SHT31;53349;53.538;8.584;2023-02-28T07:07:36;4.23;67.35
66522;SHT31;53349;53.538;8.584;2023-02-28T07:10:03;4.20;66.84
66522;SHT31;53349;53.538;8.584;2023-02-28T07:12:30;4.19;66.82
66522;SHT31;53349;53.538;8.584;2023-02-28T07:14:56;4.22;66.74
66522;SHT31;53349;53.538;8.584;2023-02-28T07:17:22;4.22;66.93
66522;SHT31;53349;53.538;8.584;2023-02-28T07:19:48;4.23;66.90
66522;SHT31;53349;53.538;8.584;2023-02-28T07:22:14;4.26;66.99
66522;SHT31;53349;53.538;8.584;2023-02-28T07:24:42;4.28;67.05
66522;SHT31;53349;53.538;8.584;2023-02-28T07:27:09;4.33;66.70
66522;SHT31;53349;53.538;8.584;2023-02-28T07:29:44;4.42;66.72
66522;SHT31;53349;53.538;8.584;2023-02-28T07:32:09;4.53;66.63
66522;SHT31;53349;53.538;8.584;2023-02-28T07:34:35;4.64;66.68
66522;SHT31;53349;53.538;8.584;2023-02-28T07:37:03;4.74;66.57
66522;SHT31;53349;53.538;8.584;2023-02-28T07:39:28;4.85;66.57
66522;SHT31;53349;53.538;8.584;2023-02-28T07:41:56;4.92;66.65
66522;SHT31;53349;53.538;8.584;2023-02-28T07:44:21;5.10;65.72
66522;SHT31;53349;53.538;8.584;2023-02-28T07:46:46;5.20;64.89
66522;SHT31;53349;53.538;8.584;2023-02-28T07:49:12;5.31;64.43
66522;SHT31;53349;53.538;8.584;2023-02-28T07:51:37;5.53;65.30
66522;SHT31;53349;53.538;8.584;2023-02-28T07:54:03;5.66;64.08
66522;SHT31;53349;53.538;8.584;2023-02-28T07:56:31;5.86;64.66
66522;SHT31;53349;53.538;8.584;2023-02-28T07:58:57;5.90;63.78
66522;SHT31;53349;53.538;8.584;2023-02-28T08:01:22;5.93;63.66
66522;SHT31;53349;53.538;8.584;2023-02-28T08:03:49;6.07;63.52
66522;SHT31;53349;53.538;8.584;2023-02-28T08:06:17;6.17;61.92
66522;SHT31;53349;53.538;8.584;2023-02-28T08:08:43;6.31;61.82
66522;SHT31;53349;53.538;8.584;2023-02-28T08:11:09;6.51;61.10
66522;SHT31;53349;53.538;8.584;2023-02-28T08:13:34;6.59;60.05
66522;SHT31;53349;53.538;8.584;2023-02-28T08:16:02;6.73;59.95
66522;SHT31;53349;53.538;8.584;2023-02-28T08:18:29;6.89;59.51
66522;SHT31;53349;53.538;8.584;2023-02-28T08:20:55;6.92;59.43
66522;SHT31;53349;53.538;8.584;2023-02-28T08:23:20;7.31;58.95
66522;SHT31;53349;53.538;8.584;2023-02-28T08:25:54;7.68;58.26
66522;SHT31;53349;53.538;8.584;2023-02-28T08:28:21;7.86;57.12
66522;SHT31;53349;53.538;8.584;2023-02-28T08:30:47;8.09;56.45
66522;SHT31;53349;53.538;8.584;2023-02-28T08:33:12;8.50;56.01
66522;SHT31;53349;53.538;8.584;2023-02-28T08:35:38;8.61;54.61
66522;SHT31;53349;53.538;8.584;2023-02-28T08:38:05;8.92;54.26
66522;SHT31;53349;53.538;8.584;2023-02-28T08:40:30;9.07;53.89
66522;SHT31;53349;53.538;8.584;2023-02-28T08:42:56;9.43;52.97
66522;SHT31;53349;53.538;8.584;2023-02-28T08:45:24;9.80;52.84
66522;SHT31;53349;53.538;8.584;2023-02-28T08:47:49;10.13;52.28
66522;SHT31;53349;53.538;8.584;2023-02-28T08:50:14;10.46;51.53
66522;SHT31;53349;53.538;8.584;2023-02-28T08:52:45;10.79;50.96
66522;SHT31;53349;53.538;8.584;2023-02-28T08:55:13;11.10;50.05
66522;SHT31;53349;53.538;8.584;2023-02-28T08:57:38;11.38;49.24
66522;SHT31;53349;53.538;8.584;2023-02-28T09:00:04;11.57;48.18
66522;SHT31;53349;53.538;8.584;2023-02-28T09:02:31;11.82;48.75
66522;SHT31;53349;53.538;8.584;2023-02-28T09:04:56;11.92;48.16
66522;SHT31;53349;53.538;8.584;2023-02-28T09:07:21;12.15;47.56
66522;SHT31;53349;53.538;8.584;2023-02-28T09:09:47;12.29;47.19
66522;SHT31;53349;53.538;8.584;2023-02-28T09:12:12;12.55;46.47
66522;SHT31;53349;53.538;8.584;2023-02-28T09:14:37;12.91;45.77
66522;SHT31;53349;53.538;8.584;2023-02-28T09:17:03;12.98;45.23
66522;SHT31;53349;53.538;8.584;2023-02-28T09:19:28;13.01;44.64
66522;SHT31;53349;53.538;8.584;2023-02-28T09:21:54;13.17;44.42
66522;SHT31;53349;53.538;8.584;2023-02-28T09:24:19;13.04;43.84
66522;SHT31;53349;53.538;8.584;2023-02-28T09:26:45;13.28;44.48
66522;SHT31;53349;53.538;8.584;2023-02-28T09:29:11;13.72;43.54
66522;SHT31;53349;53.538;8.584;2023-02-28T09:31:36;13.95;43.63
66522;SHT31;53349;53.538;8.584;2023-02-28T09:34:05;13.65;43.28
66522;SHT31;53349;53.538;8.584;2023-02-28T09:36:31;13.72;43.42
66522;SHT31;53349;53.538;8.584;2023-02-28T09:38:56;14.23;43.12
66522;SHT31;53349;53.538;8.584;2023-02-28T09:41:24;14.20;43.18
66522;SHT31;53349;53.538;8.584;2023-02-28T09:43:55;14.61;42.37
66522;SHT31;53349;53.538;8.584;2023-02-28T09:46:42;14.72;41.83
66522;SHT31;53349;53.538;8.584;2023-02-28T09:49:12;14.81;42.10
66522;SHT31;53349;53.538;8.584;2023-02-28T09:54:19;15.05;41.16
66522;SHT31;53349;53.538;8.584;2023-02-28T10:05:39;14.95;41.52
66522;SHT31;53349;53.538;8.584;2023-02-28T10:08:18;15.18;41.36
66522;SHT31;53349;53.538;8.584;2023-02-28T10:10:51;15.09;42.25
66522;SHT31;53349;53.538;8.584;2023-02-28T10:16:02;15.66;39.72
66522;SHT31;53349;53.538;8.584;2023-02-28T10:18:39;15.56;40.15
66522;SHT31;53349;53.538;8.584;2023-02-28T10:21:08;15.70;39.92
66522;SHT31;53349;53.538;8.584;2023-02-28T10:23:40;15.56;39.95
66522;SHT31;53349;53.538;8.584;2023-02-28T10:26:12;15.64;39.95
66522;SHT31;53349;53.538;8.584;2023-02-28T10:28:38;15.57;39.99
66522;SHT31;53349;53.538;8.584;2023-02-28T10:31:04;15.60;39.71
66522;SHT31;53349;53.538;8.584;2023-02-28T10:33:33;15.13;39.74
66522;SHT31;53349;53.538;8.584;2023-02-28T10:36:00;14.86;41.32
66522;SHT31;53349;53.538;8.584;2023-02-28T10:38:34;15.23;40.21
66522;SHT31;53349;53.538;8.584;2023-02-28T10:41:26;15.16;39.26
66522;SHT31;53349;53.538;8.584;2023-02-28T10:44:11;14.81;40.13
66522;SHT31;53349;53.538;8.584;2023-02-28T10:46:39;15.15;40.14
66522;SHT31;53349;53.538;8.584;2023-02-28T10:49:11;15.25;39.61
66522;SHT31;53349;53.538;8.584;2023-02-28T10:51:40;15.16;40.11
66522;SHT31;53349;53.538;8.584;2023-02-28T10:54:29;15.09;39.96
66522;SHT31;53349;53.538;8.584;2023-02-28T10:57:23;15.19;39.51
66522;SHT31;53349;53.538;8.584;2023-02-28T11:00:19;15.25;38.83
66522;SHT31;53349;53.538;8.584;2023-02-28T11:02:48;14.86;38.62
66522;SHT31;53349;53.538;8.584;2023-02-28T11:05:31;14.77;39.21
66522;SHT31;53349;53.538;8.584;2023-02-28T11:08:17;14.85;38.11
66522;SHT31;53349;53.538;8.584;2023-02-28T11:10:58;14.82;37.70
66522;SHT31;53349;53.538;8.584;2023-02-28T11:13:34;14.84;38.09
66522;SHT31;53349;53.538;8.584;2023-02-28T11:16:04;14.75;36.46
66522;SHT31;53349;53.538;8.584;2023-02-28T11:21:21;14.16;38.77
66522;SHT31;53349;53.538;8.584;2023-02-28T11:23:51;14.10;39.64
66522;SHT31;53349;53.538;8.584;2023-02-28T11:26:38;14.20;38.91
66522;SHT31;53349;53.538;8.584;2023-02-28T11:32:11;14.58;38.12
66522;SHT31;53349;53.538;8.584;2023-02-28T11:34:32;14.58;38.51
66522;SHT31;53349;53.538;8.584;2023-02-28T11:36:59;14.31;37.71
66522;SHT31;53349;53.538;8.584;2023-02-28T11:39:28;14.40;38.13
66522;SHT31;53349;53.538;8.584;2023-02-28T11:42:29;14.40;37.34
66522;SHT31;53349;53.538;8.584;2023-02-28T11:48:02;14.33;39.20
66522;SHT31;53349;53.538;8.584;2023-02-28T11:50:40;14.30;38.81
66522;SHT31;53349;53.538;8.584;2023-02-28T12:04:23;13.87;37.92
66522;SHT31;53349;53.538;8.584;2023-02-28T12:07:11;13.80;38.40
66522;SHT31;53349;53.538;8.584;2023-02-28T12:21:00;13.12;40.18
66522;SHT31;53349;53.538;8.584;2023-02-28T12:29:10;12.49;40.43
66522;SHT31;53349;53.538;8.584;2023-02-28T12:31:41;12.30;41.62
66522;SHT31;53349;53.538;8.584;2023-02-28T12:34:15;12.12;41.98
66522;SHT31;53349;53.538;8.584;2023-02-28T12:36:43;12.08;41.59
66522;SHT31;53349;53.538;8.584;2023-02-28T12:39:16;11.99;42.23
66522;SHT31;53349;53.538;8.584;2023-02-28T12:44:46;11.70;41.87
66522;SHT31;53349;53.538;8.584;2023-02-28T12:47:16;11.63;42.05
66522;SHT31;53349;53.538;8.584;2023-02-28T12:49:59;11.54;42.68
66522;SHT31;53349;53.538;8.584;2023-02-28T12:55:27;11.40;43.16
66522;SHT31;53349;53.538;8.584;2023-02-28T12:58:17;11.31;42.52
66522;SHT31;53349;53.538;8.584;2023-02-28T13:09:39;11.09;43.83
66522;SHT31;53349;53.538;8.584;2023-02-28T13:12:25;11.05;43.74
66522;SHT31;53349;53.538;8.584;2023-02-28T13:17:31;11.02;43.13
66522;SHT31;53349;53.538;8.584;2023-02-28T13:19:58;10.82;43.47
66522;SHT31;53349;53.538;8.584;2023-02-28T13:22:41;10.79;43.17
66522;SHT31;53349;53.538;8.584;2023-02-28T13:28:12;10.46;43.83
66522;SHT31;53349;53.538;8.584;2023-02-28T13:38:54;10.31;44.97
66522;SHT31;53349;53.538;8.584;2023-02-28T13:41:45;10.18;46.32
66522;SHT31;53349;53.538;8.584;2023-02-28T13:44:29;10.18;46.50
66522;SHT31;53349;53.538;8.584;2023-02-28T13:49:35;10.18;43.55
66522;SHT31;53349;53.538;8.584;2023-02-28T13:57:35;10.04;43.94
66522;SHT31;53349;53.538;8.584;2023-02-28T14:00:34;10.13;43.06
66522;SHT31;53349;53.538;8.584;2023-02-28T14:06:16;10.21;41.62
66522;SHT31;53349;53.538;8.584;2023-02-28T14:11:34;10.17;39.82
66522;SHT31;53349;53.538;8.584;2023-02-28T14:14:00;10.21;40.36
66522;SHT31;53349;53.538;8.584;2023-02-28T14:16:35;10.18;39.01
66522;SHT31;53349;53.538;8.584;2023-02-28T14:19:21;10.17;39.88
66522;SHT31;53349;53.538;8.584;2023-02-28T14:22:19;10.25;43.74
66522;SHT31;53349;53.538;8.584;2023-02-28T14:25:08;10.20;46.15
66522;SHT31;53349;53.538;8.584;2023-02-28T14:31:07;10.07;47.96
66522;SHT31;53349;53.538;8.584;2023-02-28T14:33:46;10.04;48.21
66522;SHT31;53349;53.538;8.584;2023-02-28T14:36:25;10.00;48.28
66522;SHT31;53349;53.538;8.584;2023-02-28T14:38:55;9.96;48.80
66522;SHT31;53349;53.538;8.584;2023-02-28T14:41:44;9.83;49.54
66522;SHT31;53349;53.538;8.584;2023-02-28T14:44:21;9.84;49.82
66522;SHT31;53349;53.538;8.584;2023-02-28T14:46:53;9.86;49.80
66522;SHT31;53349;53.538;8.584;2023-02-28T14:49:31;9.76;50.04
66522;SHT31;53349;53.538;8.584;2023-02-28T14:52:19;9.67;50.25
66522;SHT31;53349;53.538;8.584;2023-02-28T14:54:45;9.67;50.61
66522;SHT31;53349;53.538;8.584;2023-02-28T14:57:26;9.62;50.51
66522;SHT31;53349;53.538;8.584;2023-02-28T15:02:30;9.53;50.19
66522;SHT31;53349;53.538;8.584;2023-02-28T15:05:23;9.39;50.80
66522;SHT31;53349;53.538;8.584;2023-02-28T15:07:48;9.32;51.18
66522;SHT31;53349;53.538;8.584;2023-02-28T15:10:23;9.35;51.41
66522;SHT31;53349;53.538;8.584;2023-02-28T15:12:56;9.32;51.73
66522;SHT31;53349;53.538;8.584;2023-02-28T15:15:27;9.28;51.90
66522;SHT31;53349;53.538;8.584;2023-02-28T15:17:56;9.26;52.06
66522;SHT31;53349;53.538;8.584;2023-02-28T15:20:23;9.26;52.15
66522;SHT31;53349;53.538;8.584;2023-02-28T15:22:50;9.25;52.63
66522;SHT31;53349;53.538;8.584;2023-02-28T15:25:19;9.21;53.20
66522;SHT31;53349;53.538;8.584;2023-02-28T15:27:52;9.12;53.73
66522;SHT31;53349;53.538;8.584;2023-02-28T15:30:29;9.10;54.22
66522;SHT31;53349;53.538;8.584;2023-02-28T15:35:42;9.05;55.00
66522;SHT31;53349;53.538;8.584;2023-02-28T15:38:16;8.98;55.25
66522;SHT31;53349;53.538;8.584;2023-02-28T15:40:49;8.92;55.48
66522;SHT31;53349;53.538;8.584;2023-02-28T15:43:32;8.94;55.41
66522;SHT31;53349;53.538;8.584;2023-02-28T15:46:06;8.88;56.08
66522;SHT31;53349;53.538;8.584;2023-02-28T15:48:38;8.88;56.16
66522;SHT31;53349;53.538;8.584;2023-02-28T15:51:20;8.84;56.51
66522;SHT31;53349;53.538;8.584;2023-02-28T15:54:23;8.83;57.53
66522;SHT31;53349;53.538;8.584;2023-02-28T15:56:51;8.83;57.95
66522;SHT31;53349;53.538;8.584;2023-02-28T15:59:20;8.77;58.40
66522;SHT31;53349;53.538;8.584;2023-02-28T16:01:46;8.73;58.60
66522;SHT31;53349;53.538;8.584;2023-02-28T16:04:20;8.73;58.70
66522;SHT31;53349;53.538;8.584;2023-02-28T16:06:46;8.63;59.09
66522;SHT31;53349;53.538;8.584;2023-02-28T16:09:14;8.52;59.71
66522;SHT31;53349;53.538;8.584;2023-02-28T16:11:47;8.54;59.57
66522;SHT31;53349;53.538;8.584;2023-02-28T16:14:24;8.54;59.86
66522;SHT31;53349;53.538;8.584;2023-02-28T16:16:52;8.46;60.13
66522;SHT31;53349;53.538;8.584;2023-02-28T16:19:19;8.50;60.33
66522;SHT31;53349;53.538;8.584;2023-02-28T16:21:45;8.42;60.49
66522;SHT31;53349;53.538;8.584;2023-02-28T16:24:11;8.43;60.56
66522;SHT31;53349;53.538;8.584;2023-02-28T16:26:40;8.36;60.95
66522;SHT31;53349;53.538;8.584;2023-02-28T16:29:06;8.30;61.30
66522;SHT31;53349;53.538;8.584;2023-02-28T16:31:35;8.22;61.58
66522;SHT31;53349;53.538;8.584;2023-02-28T16:34:01;8.23;61.56
66522;SHT31;53349;53.538;8.584;2023-02-28T16:36:27;8.25;61.68
66522;SHT31;53349;53.538;8.584;2023-02-28T16:38:54;8.23;61.87
66522;SHT31;53349;53.538;8.584;2023-02-28T16:41:26;8.17;62.05
66522;SHT31;53349;53.538;8.584;2023-02-28T16:43:54;8.16;62.04
66522;SHT31;53349;53.538;8.584;2023-02-28T16:46:20;8.23;61.40
66522;SHT31;53349;53.538;8.584;2023-02-28T16:48:52;8.17;61.27
66522;SHT31;53349;53.538;8.584;2023-02-28T16:51:18;8.09;61.11
66522;SHT31;53349;53.538;8.584;2023-02-28T16:53:44;8.10;61.17
66522;SHT31;53349;53.538;8.584;2023-02-28T16:56:15;8.07;61.07
66522;SHT31;53349;53.538;8.584;2023-02-28T16:58:41;8.07;61.23
66522;SHT31;53349;53.538;8.584;2023-02-28T17:01:07;8.03;61.25
66522;SHT31;53349;53.538;8.584;2023-02-28T17:03:32;7.94;61.45
66522;SHT31;53349;53.538;8.584;2023-02-28T17:05:58;7.92;61.57
66522;SHT31;53349;53.538;8.584;2023-02-28T17:08:24;7.95;61.60
66522;SHT31;53349;53.538;8.584;2023-02-28T17:10:51;7.88;61.86
66522;SHT31;53349;53.538;8.584;2023-02-28T17:13:16;7.81;62.12
66522;SHT31;53349;53.538;8.584;2023-02-28T17:15:45;7.79;62.25
66522;SHT31;53349;53.538;8.584;2023-02-28T17:18:17;7.72;62.57
66522;SHT31;53349;53.538;8.584;2023-02-28T17:20:43;7.74;62.54
66522;SHT31;53349;53.538;8.584;2023-02-28T17:23:09;7.71;62.55
66522;SHT31;53349;53.538;8.584;2023-02-28T17:25:35;7.71;62.42
66522;SHT31;53349;53.538;8.584;2023-02-28T17:28:01;7.71;62.32
66522;SHT31;53349;53.538;8.584;2023-02-28T17:30:27;7.65;62.41
66522;SHT31;53349;53.538;8.584;2023-02-28T17:32:55;7.64;62.50
66522;SHT31;53349;53.538;8.584;2023-02-28T17:35:22;7.58;62.82
66522;SHT31;53349;53.538;8.584;2023-02-28T17:37:49;7.57;62.75
66522;SHT31;53349;53.538;8.584;2023-02-28T17:40:16;7.55;62.94
66522;SHT31;53349;53.538;8.584;2023-02-28T17:42:47;7.48;63.10
66522;SHT31;53349;53.538;8.584;2023-02-28T17:45:13;7.47;63.12
66522;SHT31;53349;53.538;8.584;2023-02-28T17:47:40;7.40;63.12
66522;SHT31;53349;53.538;8.584;2023-02-28T17:50:12;7.34;63.37
66522;SHT31;53349;53.538;8.584;2023-02-28T17:52:39;7.37;63.37
66522;SHT31;53349;53.538;8.584;2023-02-28T17:55:05;7.37;63.48
66522;SHT31;53349;53.538;8.584;2023-02-28T17:57:32;7.34;63.47
66522;SHT31;53349;53.538;8.584;2023-02-28T17:59:57;7.33;63.64
66522;SHT31;53349;53.538;8.584;2023-02-28T18:02:24;7.30;63.77
66522;SHT31;53349;53.538;8.584;2023-02-28T18:04:49;7.28;63.80
66522;SHT31;53349;53.538;8.584;2023-02-28T18:07:15;7.24;63.99
66522;SHT31;53349;53.538;8.584;2023-02-28T18:09:40;7.23;63.90
66522;SHT31;53349;53.538;8.584;2023-02-28T18:12:06;7.16;64.02
66522;SHT31;53349;53.538;8.584;2023-02-28T18:14:36;7.12;64.08